Time;durP1;ratioP1;P1;durP2;ratioP2;P2;SDS_P1;SDS_P2;PMS_P1;PMS_P2;Temp;Humidity;BMP_temperature;BMP_pressure;BME280_temperature;BME280_humidity;BME280_pressure;Samples;Min_cycle;Max_cycle;Signal;HPM_P1;HPM_P2
2022/05/02 00:00:30;;;;;;;3.65;3.25;;;;;;;13.80;100.00;100404.31;5011812;28;20230;-81
2022/05/02 00:02:57;;;;;;;4.43;3.20;;;;;;;13.79;100.00;100414.69;5023172;28;20203;-81
2022/05/02 00:05:24;;;;;;;4.97;3.33;;;;;;;13.85;100.00;100428.66;5070691;28;20195;-81
2022/05/02 00:07:51;;;;;;;3.08;2.88;;;;;;;13.31;100.00;100337.03;5070575;28;20191;-81
2022/05/02 00:10:19;;;;;;;4.25;2.75;;;;;;;13.45;100.00;100397.91;5063297;28;20207;-82
2022/05/02 00:12:46;;;;;;;3.33;3.10;;;;;;;13.53;100.00;100440.53;5051312;28;20203;-83
2022/05/02 00:15:13;;;;;;;4.45;3.28;;;;;;;13.34;100.00;100415.22;5051152;28;20699;-83
2022/05/02 00:17:59;;;;;;;5.05;3.10;;;;;;;13.33;100.00;100411.72;5051973;28;20214;-82
2022/05/02 00:20:28;;;;;;;3.40;3.10;;;;;;;13.08;100.00;100368.06;5052258;28;20616;-83
2022/05/02 00:22:55;;;;;;;5.82;3.13;;;;;;;13.43;100.00;100432.63;5050899;28;20200;-82
2022/05/02 00:25:24;;;;;;;4.32;4.03;;;;;;;13.53;100.00;100439.66;5050462;28;20196;-82
2022/05/02 00:27:51;;;;;;;8.68;3.30;;;;;;;13.20;100.00;100406.38;5048816;28;20225;-82
2022/05/02 00:30:18;;;;;;;6.80;3.22;;;;;;;13.02;100.00;100373.19;5053310;28;20681;-82
2022/05/02 00:32:45;;;;;;;5.90;3.08;;;;;;;13.21;100.00;100415.94;5054538;28;20707;-83
2022/05/02 00:35:13;;;;;;;4.28;3.25;;;;;;;12.92;100.00;100377.44;5054884;28;20225;-82
2022/05/02 00:37:41;;;;;;;8.38;3.35;;;;;;;13.33;100.00;100442.97;5054350;28;20214;-82
2022/05/02 00:40:10;;;;;;;4.85;2.97;;;;;;;13.17;100.00;100408.94;5054428;28;20215;-82
2022/05/02 00:42:38;;;;;;;3.72;3.38;;;;;;;13.36;100.00;100450.81;5054755;28;20199;-81
2022/05/02 00:45:06;;;;;;;3.15;2.88;;;;;;;13.13;100.00;100428.88;5055590;28;20203;-82
2022/05/02 00:47:34;;;;;;;3.50;3.20;;;;;;;13.07;100.00;100446.13;5054787;28;20242;-82
2022/05/02 00:50:01;;;;;;;4.30;3.17;;;;;;;12.85;100.00;100405.97;5054012;28;20269;-82
2022/05/02 00:52:28;;;;;;;3.85;3.40;;;;;;;13.01;100.00;100454.75;5054373;28;20618;-81
2022/05/02 00:54:55;;;;;;;4.00;3.63;;;;;;;13.01;100.00;100454.75;5014465;28;20227;-82
2022/05/02 00:57:23;;;;;;;3.30;3.00;;;;;;;12.99;100.00;100443.44;5054167;28;20218;-81
2022/05/02 00:59:51;;;;;;;4.10;3.70;;;;;;;12.96;100.00;100430.41;5053456;28;20230;-83
2022/05/02 01:02:19;;;;;;;3.35;3.15;;;;;;;12.45;100.00;100373.44;5054393;28;20211;-82
2022/05/02 01:04:46;;;;;;;4.70;3.10;;;;;;;12.76;100.00;100443.19;5053869;28;20195;-82
2022/05/02 01:07:12;;;;;;;5.55;3.55;;;;;;;12.58;100.00;100411.75;5053704;28;20202;-82
2022/05/02 01:09:42;;;;;;;4.30;3.20;;;;;;;12.60;100.00;100404.84;5035054;28;20241;-81
2022/05/02 01:12:11;;;;;;;3.55;3.25;;;;;;;12.67;100.00;100423.97;5054162;28;20215;-83
2022/05/02 01:14:39;;;;;;;4.10;3.20;;;;;;;12.48;100.00;100414.22;5015361;28;20200;-84
2022/05/02 01:17:08;;;;;;;3.67;3.15;;;;;;;12.62;100.00;100433.47;5048098;28;20662;-82
2022/05/02 01:19:35;;;;;;;3.67;3.10;;;;;;;12.51;100.00;100420.34;5053138;28;20203;-82
2022/05/02 01:22:05;;;;;;;4.88;3.63;;;;;;;12.78;100.00;100430.19;5053614;28;20200;-81
2022/05/02 01:24:37;;;;;;;4.72;3.90;;;;;;;12.68;100.00;100418.81;5053502;28;20284;-83
2022/05/02 01:27:06;;;;;;;4.13;3.17;;;;;;;12.62;100.00;100436.06;5053633;28;20795;-83
2022/05/02 01:29:34;;;;;;;6.50;3.85;;;;;;;12.25;100.00;100364.53;5053262;28;20200;-82
2022/05/02 01:32:01;;;;;;;3.90;3.60;;;;;;;12.54;100.00;100420.38;5053860;28;20191;-76
2022/05/02 01:34:29;;;;;;;4.28;3.70;;;;;;;12.37;100.00;100386.38;5052848;28;20689;-74
2022/05/02 01:36:56;;;;;;;5.03;3.40;;;;;;;12.34;100.00;100396.69;5053847;28;20210;-82
2022/05/02 01:39:24;;;;;;;4.45;3.58;;;;;;;12.39;100.00;100363.84;5053325;28;20219;-83
2022/05/02 01:41:51;;;;;;;4.90;3.83;;;;;;;12.60;100.00;100417.84;5053690;28;20227;-82
2022/05/02 01:44:18;;;;;;;3.65;3.20;;;;;;;12.41;100.00;100419.31;5053793;28;20199;-82
2022/05/02 01:46:45;;;;;;;3.50;3.20;;;;;;;12.43;100.00;100417.63;5053515;28;20192;-83
2022/05/02 01:49:12;;;;;;;3.92;3.60;;;;;;;12.49;100.00;100415.94;5053363;28;20214;-82
2022/05/02 01:51:39;;;;;;;3.60;3.30;;;;;;;12.40;100.00;100412.41;5053246;28;20241;-83
2022/05/02 01:54:06;;;;;;;5.18;3.22;;;;;;;11.98;100.00;100344.25;5052795;28;20199;-83
2022/05/02 01:56:35;;;;;;;4.15;3.85;;;;;;;12.26;100.00;100387.94;5052439;28;20250;-82
2022/05/02 01:59:02;;;;;;;3.53;3.22;;;;;;;12.02;100.00;100377.19;5017405;28;20195;-82
2022/05/02 02:01:28;;;;;;;3.33;3.10;;;;;;;11.96;100.00;100365.84;5053002;28;20225;-82
2022/05/02 02:03:55;;;;;;;5.10;3.20;;;;;;;11.97;100.00;100373.69;5053112;28;20211;-82
2022/05/02 02:06:21;;;;;;;6.38;3.65;;;;;;;12.08;100.00;100390.31;5052749;28;20199;-82
2022/05/02 02:08:49;;;;;;;5.50;3.80;;;;;;;12.03;100.00;100368.56;5052406;28;20203;-83
2022/05/02 02:11:16;;;;;;;4.00;3.60;;;;;;;12.02;100.00;100378.94;5053180;28;20245;-83
2022/05/02 02:13:45;;;;;;;4.20;3.47;;;;;;;11.65;100.00;100307.38;5052769;28;20206;-83
2022/05/02 02:16:13;;;;;;;3.50;3.20;;;;;;;12.00;100.00;100399.72;5017534;28;20222;-83
2022/05/02 02:18:42;;;;;;;4.10;3.78;;;;;;;11.95;100.00;100379.72;5052319;28;20218;-83
2022/05/02 02:21:10;;;;;;;7.90;3.38;;;;;;;11.90;100.00;100379.66;5052119;28;20219;-83
2022/05/02 02:23:38;;;;;;;5.65;3.75;;;;;;;12.02;100.00;100403.19;5052862;28;20196;-81
2022/05/02 02:26:05;;;;;;;8.23;3.45;;;;;;;12.00;100.00;100399.72;5051213;28;20200;-82
2022/05/02 02:28:33;;;;;;;3.88;3.47;;;;;;;11.85;100.00;100358.78;5049496;28;20204;-82
2022/05/02 02:31:01;;;;;;;5.85;3.30;;;;;;;12.01;100.00;100385.88;5051345;28;20207;-83
2022/05/02 02:33:28;;;;;;;8.10;3.95;;;;;;;11.86;100.00;100390.84;5052555;28;20196;-82
2022/05/02 02:35:55;;;;;;;4.22;3.75;;;;;;;12.01;100.00;100393.66;5052371;28;20226;-83
2022/05/02 02:38:22;;;;;;;4.10;3.70;;;;;;;11.79;100.00;100355.22;5052442;28;20203;-83
2022/05/02 02:40:49;;;;;;;3.90;3.47;;;;;;;12.01;100.00;100395.38;5052276;28;20242;-82
2022/05/02 02:43:16;;;;;;;4.47;3.50;;;;;;;11.74;100.00;100334.38;5052640;28;20693;-82
2022/05/02 02:45:43;;;;;;;3.47;3.25;;;;;;;11.75;100.00;100374.22;5052656;28;20191;-82
2022/05/02 02:48:11;;;;;;;3.72;3.05;;;;;;;11.67;100.00;100355.00;5052388;28;20274;-83
2022/05/02 02:50:38;;;;;;;4.07;3.78;;;;;;;11.60;100.00;100350.56;5048076;28;20192;-82
2022/05/02 02:53:05;;;;;;;4.50;3.72;;;;;;;11.78;100.00;100387.25;5039675;28;20203;-82
2022/05/02 02:55:32;;;;;;;5.50;3.90;;;;;;;11.84;100.00;100382.16;5052366;28;20223;-82
2022/05/02 02:57:59;;;;;;;3.88;3.50;;;;;;;11.76;100.00;100394.16;5052086;28;20204;-83
2022/05/02 03:00:26;;;;;;;3.85;3.55;;;;;;;11.81;100.00;100393.38;5047116;28;20226;-82
2022/05/02 03:02:54;;;;;;;4.07;3.78;;;;;;;11.48;100.00;100316.66;5051963;28;20678;-82
2022/05/02 03:08:18;;;;;;;4.20;3.80;;;;;;;10.70;100.00;100210.75;5030118;28;20207;-83
2022/05/02 03:10:45;;;;;;;8.10;4.90;;;;;;;11.76;100.00;100389.84;5029332;28;20212;-82
2022/05/02 03:13:12;;;;;;;5.20;3.45;;;;;;;11.53;100.00;100367.78;5029474;28;20204;-83
2022/05/02 03:15:39;;;;;;;6.07;3.95;;;;;;;11.29;100.00;100318.97;5030071;28;20208;-82
2022/05/02 03:18:06;;;;;;;5.03;3.45;;;;;;;11.69;100.00;100384.50;5029321;28;20200;-83
2022/05/02 03:20:34;;;;;;;6.05;3.80;;;;;;;11.64;100.00;100361.03;5028771;28;20227;-83
2022/05/02 03:23:01;;;;;;;6.25;3.33;;;;;;;11.27;100.00;100323.22;5028895;28;20363;-82
2022/05/02 03:25:27;;;;;;;4.22;3.83;;;;;;;11.10;100.00;100298.75;5029367;28;20219;-82
2022/05/02 03:27:54;;;;;;;4.65;3.90;;;;;;;11.30;100.00;100315.53;5027929;28;20204;-81
2022/05/02 03:30:21;;;;;;;4.03;3.72;;;;;;;11.64;100.00;100362.75;5028971;28;20283;-82
2022/05/02 03:32:48;;;;;;;4.90;3.85;;;;;;;11.69;100.00;100361.13;5028855;28;20196;-83
2022/05/02 03:35:15;;;;;;;3.85;3.55;;;;;;;11.57;100.00;100329.75;5029507;28;20196;-82
2022/05/02 03:37:43;;;;;;;4.90;3.58;;;;;;;11.86;100.00;100354.47;5029332;28;20595;-82
2022/05/02 03:40:10;;;;;;;4.03;3.72;;;;;;;12.01;100.00;100354.69;5029313;28;20204;-82
2022/05/02 03:42:38;;;;;;;7.10;3.80;;;;;;;12.29;100.00;100338.59;5041649;28;20188;-82
2022/05/02 03:45:06;;;;;;;5.45;3.70;;;;;;;12.77;100.00;100324.38;5051878;28;20257;-82
2022/05/02 03:47:33;;;;;;;6.00;3.67;;;;;;;13.41;100.00;100377.94;5051665;28;20231;-82
2022/05/02 03:50:00;;;;;;;10.40;3.90;;;;;;;13.50;100.00;100345.88;5050848;28;20195;-81
2022/05/02 03:52:27;;;;;;;8.10;3.58;;;;;;;13.73;100.00;100386.00;5051232;28;20219;-81
2022/05/02 03:54:55;;;;;;;5.40;3.60;;;;;;;13.20;100.00;100330.84;5050788;28;20223;-82
2022/05/02 03:57:22;;;;;;;4.82;3.30;;;;;;;13.48;100.00;100386.69;5050871;28;20188;-80
2022/05/02 03:59:49;;;;;;;4.82;3.55;;;;;;;13.16;100.00;100361.19;5051096;28;20204;-82
2022/05/02 04:02:15;;;;;;;5.50;3.10;;;;;;;13.32;100.00;100401.28;5049752;28;20226;-82
2022/05/02 04:04:42;;;;;;;9.30;3.47;;;;;;;13.44;100.00;100382.28;5050702;28;20203;-82
2022/05/02 04:07:09;;;;;;;3.83;2.95;;;;;;;13.75;100.00;100399.91;5051219;28;20203;-83
2022/05/02 04:09:36;;;;;;;3.88;3.30;;;;;;;13.85;100.00;100341.75;5050822;28;20192;-82
2022/05/02 04:12:05;;;;;;;3.58;2.35;;;;;;;14.04;99.55;100406.19;5051563;28;20206;-82
2022/05/02 04:14:32;;;;;;;2.45;2.33;;;;;;;13.57;100.00;100390.22;5050846;28;20200;-81
2022/05/02 04:16:58;;;;;;;3.25;2.85;;;;;;;13.52;100.00;100412.75;5059155;28;20587;-82
2022/05/02 04:19:25;;;;;;;3.00;2.80;;;;;;;13.52;94.47;100371.06;5059216;28;20191;-82
2022/05/02 04:21:53;;;;;;;2.63;2.42;;;;;;;13.84;90.65;100405.19;5058970;28;20230;-83
2022/05/02 04:24:20;;;;;;;3.55;2.90;;;;;;;13.49;90.58;100409.25;5060920;28;20274;-82
2022/05/02 04:26:47;;;;;;;2.88;2.67;;;;;;;13.46;87.55;100336.28;5058850;28;20200;-81
2022/05/02 04:29:15;;;;;;;4.25;2.80;;;;;;;13.99;83.82;100374.00;5063609;28;20195;-80
2022/05/02 04:31:42;;;;;;;3.80;3.17;;;;;;;13.43;89.88;100318.03;5052905;28;20269;-85
2022/05/02 04:34:09;;;;;;;4.80;3.03;;;;;;;14.71;81.69;100414.38;5023724;28;20202;-77
2022/05/02 04:36:36;;;;;;;4.95;2.65;;;;;;;13.88;80.81;100323.53;5059004;28;20187;-83
2022/05/02 04:39:03;;;;;;;4.47;3.20;;;;;;;14.55;80.23;100399.53;5024244;28;20203;-82
2022/05/02 04:41:30;;;;;;;7.25;3.30;;;;;;;14.94;79.16;100415.31;5059554;28;20222;-83
2022/05/02 04:43:56;;;;;;;8.43;3.38;;;;;;;15.82;73.26;100405.84;5058530;28;20206;-82
2022/05/02 04:46:26;;;;;;;5.45;3.33;;;;;;;16.56;68.26;100419.63;5058577;28;20587;-82
2022/05/02 04:48:53;;;;;;;4.00;2.95;;;;;;;16.20;66.82;100369.13;5064906;28;20594;-82
2022/05/02 04:51:20;;;;;;;6.95;3.03;;;;;;;16.67;66.93;100417.84;5058632;28;20203;-82
2022/05/02 04:53:47;;;;;;;3.70;2.92;;;;;;;17.01;65.00;100395.84;5058459;28;20199;-82
2022/05/02 04:56:13;;;;;;;4.05;3.22;;;;;;;15.72;68.38;100340.50;5055677;28;20234;-83
2022/05/02 04:58:40;;;;;;;3.55;2.90;;;;;;;16.16;69.22;100406.63;5058115;28;20219;-80
2022/05/02 05:01:07;;;;;;;8.25;3.20;;;;;;;16.50;68.31;100398.69;5057322;28;20227;-79
2022/05/02 05:03:36;;;;;;;3.78;3.45;;;;;;;16.55;69.71;100399.56;5056404;28;20196;-79
2022/05/02 05:06:04;;;;;;;3.45;3.05;;;;;;;17.48;67.30;100426.09;5057129;28;20640;-87
2022/05/02 05:08:31;;;;;;;4.75;3.20;;;;;;;17.21;67.47;100420.16;5058311;28;20198;-82
2022/05/02 05:11:08;;;;;;;5.78;3.40;;;;;;;15.90;71.06;100322.16;5032936;28;20187;-81
2022/05/02 05:13:44;;;;;;;6.38;5.45;;;;;;;17.34;98.63;100418.31;5063810;28;20678;-77
2022/05/02 05:16:36;;;;;;;4.95;4.53;;;;;;;18.75;75.23;100414.34;5067176;28;20202;-83
2022/05/02 05:19:15;;;;;;;5.05;3.80;;;;;;;18.84;65.45;100372.19;5057609;28;20208;-83
2022/05/02 05:21:49;;;;;;;3.35;3.05;;;;;;;16.15;66.05;100321.19;5043126;28;20235;-89
2022/05/02 05:24:55;;;;;;;5.28;3.33;;;;;;;16.15;72.33;100397.06;5051317;28;20222;-73
2022/05/02 05:27:35;;;;;;;5.97;3.78;;;;;;;15.73;76.72;100412.81;5011443;28;20200;-76
2022/05/02 05:30:05;;;;;;;6.93;4.18;;;;;;;15.11;80.56;100395.34;5011694;28;20712;-82
2022/05/02 05:32:41;;;;;;;4.50;3.97;;;;;;;15.28;78.40;100395.34;4999266;28;20221;-85
2022/05/02 05:35:11;;;;;;;2.70;2.50;;;;;;;13.95;82.12;100304.44;5022908;28;20236;-89
2022/05/02 05:37:54;;;;;;;4.70;4.13;;;;;;;14.71;81.70;100308.22;5022859;28;20288;-87
2022/05/02 05:40:27;;;;;;;6.28;4.00;;;;;;;15.45;80.05;100411.03;5019762;28;20227;-87
2022/05/02 05:43:04;;;;;;;6.05;3.10;;;;;;;14.80;79.13;100406.59;5010130;28;20658;-90
2022/05/02 05:45:59;;;;;;;4.38;3.70;;;;;;;13.84;85.70;100298.34;5014917;28;20208;-88
2022/05/02 05:48:39;;;;;;;9.70;3.97;;;;;;;14.14;81.22;100302.78;5004091;28;20218;-84
2022/05/02 05:51:25;;;;;;;3.53;3.17;;;;;;;14.80;76.61;100409.19;5011943;28;20193;-78
2022/05/02 05:54:18;;;;;;;10.05;3.75;;;;;;;14.52;83.02;100396.91;5011348;28;20700;-83
2022/05/02 05:56:51;;;;;;;3.40;3.10;;;;;;;14.22;81.73;100405.41;5011625;28;20208;-81
2022/05/02 05:59:29;;;;;;;4.38;3.92;;;;;;;13.97;85.89;100352.25;4978485;28;20670;-84
2022/05/02 06:02:05;;;;;;;6.88;4.15;;;;;;;14.52;86.66;100384.72;5011512;28;20807;-85
2022/05/02 06:04:33;;;;;;;4.88;4.07;;;;;;;14.31;85.58;100361.97;5046546;28;20270;-85
2022/05/02 06:07:02;;;;;;;5.75;3.53;;;;;;;14.44;78.56;100365.56;5053380;28;20626;-85
2022/05/02 06:09:31;;;;;;;5.07;3.67;;;;;;;14.74;77.23;100404.81;5053819;28;20203;-84
2022/05/02 06:11:59;;;;;;;6.95;3.70;;;;;;;14.58;83.64;100396.94;5054506;28;20196;-83
2022/05/02 06:14:28;;;;;;;4.40;3.35;;;;;;;14.44;77.52;100349.03;5045744;28;20219;-83
2022/05/02 06:19:44;;;;;;;4.28;3.88;;;;;;;15.09;77.31;100389.22;5036316;28;20226;-85
2022/05/02 06:22:13;;;;;;;7.15;4.38;;;;;;;15.24;78.73;100407.53;5042665;28;20242;-88
2022/05/02 06:24:46;;;;;;;7.78;4.35;;;;;;;15.42;77.39;100405.81;5037870;28;20258;-82
2022/05/02 06:27:13;;;;;;;7.18;4.03;;;;;;;14.88;75.45;100337.84;5035246;28;20204;-83
2022/05/02 06:29:42;;;;;;;4.72;3.80;;;;;;;15.09;79.21;100385.75;5036430;28;20249;-83
2022/05/02 06:32:12;;;;;;;5.78;3.80;;;;;;;15.05;76.11;100408.38;5037324;28;20210;-85
2022/05/02 06:34:41;;;;;;;4.47;3.45;;;;;;;14.83;78.22;100399.63;5016985;28;20200;-83
2022/05/02 06:37:36;;;;;;;5.05;4.13;;;;;;;15.23;81.49;100387.50;5051865;28;20941;-82
2022/05/02 06:40:14;;;;;;;3.25;2.95;;;;;;;14.89;77.63;100391.81;5051592;28;20294;-79
2022/05/02 06:42:51;;;;;;;4.78;3.78;;;;;;;14.86;80.71;100394.41;5052391;28;20773;-80
2022/05/02 06:45:23;;;;;;;5.47;2.75;;;;;;;14.69;77.86;100369.13;5033648;28;20203;-76
2022/05/02 06:48:08;;;;;;;3.05;2.80;;;;;;;15.09;78.20;100411.88;5042658;28;20193;-76
2022/05/02 06:50:38;;;;;;;5.03;3.00;;;;;;;15.12;73.36;100385.75;5000197;28;20223;-83
2022/05/02 06:53:19;;;;;;;5.93;4.30;;;;;;;15.48;81.97;100364.00;5014366;28;20588;-77
2022/05/02 06:55:53;;;;;;;4.38;3.40;;;;;;;16.06;71.52;100404.91;5052486;28;20234;-76
2022/05/02 06:58:34;;;;;;;5.18;3.03;;;;;;;16.04;66.60;100409.28;5052371;28;20195;-75
2022/05/02 07:01:06;;;;;;;3.28;2.95;;;;;;;15.96;67.37;100411.03;5051661;28;20196;-76
2022/05/02 07:03:57;;;;;;;3.13;2.88;;;;;;;16.08;66.36;100397.94;5044198;28;20224;-76
2022/05/02 07:06:38;;;;;;;3.10;2.80;;;;;;;16.07;68.58;100380.50;5034858;28;20649;-78
2022/05/02 07:09:11;;;;;;;6.93;3.92;;;;;;;16.44;66.68;100403.94;5032924;28;20200;-77
2022/05/02 07:11:45;;;;;;;17.80;7.97;;;;;;;16.52;67.33;100403.03;5052059;28;20207;-79
2022/05/02 07:14:19;;;;;;;3.55;3.00;;;;;;;16.59;65.09;100393.44;5050235;28;20204;-83
2022/05/02 07:16:50;;;;;;;8.10;3.03;;;;;;;16.55;64.14;100355.03;5050935;28;20600;-80
2022/05/02 07:19:30;;;;;;;2.30;2.00;;;;;;;16.63;62.87;100369.84;5040539;28;20301;-76
2022/05/02 07:22:02;;;;;;;3.35;2.28;;;;;;;16.84;61.10;100397.66;5033094;28;20281;-75
2022/05/02 07:24:53;;;;;;;3.42;2.80;;;;;;;17.22;61.09;100400.94;5031012;28;20212;-78
2022/05/02 07:27:54;;;;;;;2.95;2.42;;;;;;;17.53;60.36;100413.81;5031078;28;20641;-76
2022/05/02 07:30:23;;;;;;;2.75;2.55;;;;;;;17.66;60.54;100411.09;5030948;28;20246;-77
2022/05/02 07:32:53;;;;;;;5.43;3.45;;;;;;;17.90;60.78;100394.28;5036178;28;20215;-76
2022/05/02 07:35:21;;;;;;;3.97;2.53;;;;;;;16.93;59.64;100331.28;5034152;28;20667;-76
2022/05/02 07:37:49;;;;;;;4.40;2.70;;;;;;;17.55;59.56;100396.34;5032707;28;20208;-77
2022/05/02 07:40:20;;;;;;;4.22;2.63;;;;;;;17.25;61.42;100364.22;5036716;28;20714;-76
2022/05/02 07:42:48;;;;;;;3.28;2.20;;;;;;;17.01;60.76;100342.59;5033227;28;20251;-77
2022/05/02 07:45:17;;;;;;;2.88;2.67;;;;;;;17.46;60.60;100378.91;5036650;28;20211;-79
2022/05/02 07:47:47;;;;;;;2.92;2.10;;;;;;;17.77;59.44;100384.78;5036702;28;20226;-75
2022/05/02 07:50:16;;;;;;;4.85;2.45;;;;;;;17.75;57.81;100374.31;5050777;28;20287;-72
2022/05/02 07:52:46;;;;;;;8.13;2.22;;;;;;;17.81;58.43;100383.88;5050779;28;20847;-74
2022/05/02 07:55:15;;;;;;;4.45;2.30;;;;;;;18.00;58.90;100372.31;5050795;28;20699;-76
2022/05/02 07:57:45;;;;;;;3.20;2.45;;;;;;;18.12;58.40;100364.28;5046771;28;20199;-78
2022/05/02 08:00:13;;;;;;;2.45;2.25;;;;;;;18.44;59.87;100365.69;5028147;28;20211;-75
2022/05/02 08:02:40;;;;;;;2.33;2.13;;;;;;;18.27;57.84;100358.88;5048578;28;20223;-75
2022/05/02 08:05:07;;;;;;;29.38;12.30;;;;;;;18.16;56.63;100366.00;5049350;28;20204;-94
2022/05/02 08:07:36;;;;;;;7.60;3.85;;;;;;;18.24;56.91;100364.16;5032501;28;20203;-83
2022/05/02 08:10:43;;;;;;;3.28;2.20;;;;;;;18.68;54.27;100375.91;5016034;28;20663;-80
2022/05/02 08:13:33;;;;;;;1.98;1.88;;;;;;;18.57;53.05;100268.38;5003363;28;20204;-82
2022/05/02 08:16:05;;;;;;;1.80;1.70;;;;;;;18.16;50.61;100234.78;5006076;28;20205;-84
2022/05/02 08:18:54;;;;;;;1.50;1.40;;;;;;;18.75;48.26;100327.66;5007180;28;20197;-85
2022/05/02 08:21:25;;;;;;;2.20;2.10;;;;;;;18.98;48.13;100285.28;5012586;28;21497;-79
2022/05/02 08:27:17;;;;;;;1.75;1.65;;;;;;;19.56;44.80;100335.16;5011673;28;20227;-78
2022/05/02 08:30:16;;;;;;;3.03;1.90;;;;;;;19.63;43.79;100334.13;5013715;28;20200;-85
2022/05/02 08:32:51;;;;;;;1.73;1.38;;;;;;;19.65;43.51;100335.00;4951246;29;20214;-80
2022/05/02 08:35:27;;;;;;;2.55;1.90;;;;;;;19.70;42.12;100330.50;4950872;28;20203;-78
2022/05/02 08:38:15;;;;;;;2.10;1.98;;;;;;;19.75;42.41;100305.00;4943888;28;20679;-76
2022/05/02 08:41:30;;;;;;;2.03;1.92;;;;;;;20.28;43.45;100325.03;4938129;28;20624;-76
2022/05/02 08:44:26;;;;;;;2.15;1.92;;;;;;;20.03;41.84;100271.97;4884324;29;20664;-78
2022/05/02 08:47:31;;;;;;;2.25;1.50;;;;;;;20.21;41.15;100302.31;4910987;29;20204;-77
2022/05/02 08:50:24;;;;;;;1.45;1.35;;;;;;;19.75;40.50;100284.81;4899914;29;20213;-76
2022/05/02 08:53:27;;;;;;;1.40;1.40;;;;;;;20.03;41.15;100295.66;4915747;29;20247;-75
2022/05/02 08:56:16;;;;;;;1.48;1.38;;;;;;;19.96;40.70;100274.75;4915108;29;20239;-75
2022/05/02 08:59:06;;;;;;;2.92;1.52;;;;;;;20.18;40.31;100268.16;4914922;29;20208;-78
2022/05/02 09:02:37;;;;;;;1.15;1.15;;;;;;;20.11;39.07;100264.78;4914782;29;20213;-76
2022/05/02 09:05:40;;;;;;;1.88;1.70;;;;;;;20.64;38.64;100287.34;4858487;29;20202;-80
2022/05/02 09:08:34;;;;;;;1.23;1.13;;;;;;;19.73;37.59;100177.84;4856745;29;20289;-78
2022/05/02 09:11:12;;;;;;;1.40;1.30;;;;;;;20.27;36.96;100270.56;4932873;29;20207;-79
2022/05/02 09:14:33;;;;;;;9.68;5.43;;;;;;;20.62;36.38;100285.63;4933398;29;20210;-82
2022/05/02 09:17:39;;;;;;;2.67;1.63;;;;;;;20.18;36.03;100219.00;4832575;29;20218;-83
2022/05/02 09:20:30;;;;;;;1.70;1.60;;;;;;;20.61;36.32;100273.38;4839105;29;20210;-78
2022/05/02 09:23:33;;;;;;;6.95;2.65;;;;;;;20.85;36.73;100264.91;4828137;29;20727;-79
2022/05/02 09:26:36;;;;;;;3.50;1.95;;;;;;;20.79;37.92;100241.34;4823386;29;20249;-77
2022/05/02 09:29:38;;;;;;;1.20;1.20;;;;;;;20.83;37.60;100243.00;4820319;29;20227;-75
2022/05/02 09:32:09;;;;;;;2.88;1.15;;;;;;;20.81;38.10;100250.06;4821321;29;20240;-76
2022/05/02 09:34:46;;;;;;;3.65;1.67;;;;;;;21.42;38.02;100248.53;4820545;29;20215;-85
2022/05/02 09:37:21;;;;;;;3.15;1.42;;;;;;;21.32;38.18;100220.69;4823224;29;20219;-78
2022/05/02 09:39:53;;;;;;;1.50;1.40;;;;;;;21.37;38.11;100187.13;4849753;29;20209;-81
2022/05/02 09:42:41;;;;;;;1.92;1.40;;;;;;;21.65;32.44;100251.44;4838759;29;20730;-79
2022/05/02 09:51:10;;;;;;;1.98;1.88;;;;;;;21.49;36.00;100252.75;4847634;29;20686;-83
2022/05/02 09:53:47;;;;;;;1.88;1.77;;;;;;;21.34;37.82;100179.28;4935588;28;20205;-79
2022/05/02 09:56:38;;;;;;;2.85;1.50;;;;;;;21.57;38.90;100242.84;4984511;28;20230;-76
2022/05/02 09:59:08;;;;;;;2.03;1.80;;;;;;;21.46;38.89;100229.97;4984688;28;20305;-76
2022/05/02 10:01:40;;;;;;;4.30;1.90;;;;;;;21.41;38.94;100201.94;5052524;28;20573;-76
2022/05/02 10:04:36;;;;;;;4.07;1.90;;;;;;;21.63;38.90;100211.00;5013536;28;20222;-77
2022/05/02 10:07:08;;;;;;;2.33;2.20;;;;;;;21.93;39.22;100222.50;5032930;28;20203;-76
2022/05/02 10:09:51;;;;;;;2.53;2.17;;;;;;;21.94;39.50;100229.53;5037974;28;20699;-76
2022/05/02 10:12:27;;;;;;;2.65;1.65;;;;;;;21.45;39.08;100230.84;5052696;28;20195;-75
2022/05/02 10:15:12;;;;;;;2.05;1.67;;;;;;;20.89;39.85;100234.06;5051613;28;20221;-75
2022/05/02 10:18:05;;;;;;;4.05;1.95;;;;;;;21.06;39.32;100234.50;5052548;28;20202;-76
2022/05/02 10:20:45;;;;;;;5.25;2.17;;;;;;;21.13;39.71;100228.19;5049039;28;20290;-76
2022/05/02 10:23:35;;;;;;;2.35;1.92;;;;;;;21.13;40.04;100238.75;5052177;28;20231;-74
2022/05/02 10:26:14;;;;;;;2.35;2.15;;;;;;;20.92;39.74;100213.75;5039858;28;20201;-74
2022/05/02 10:29:08;;;;;;;4.03;2.95;;;;;;;21.02;39.01;100225.81;5035494;28;20195;-76
2022/05/02 10:31:36;;;;;;;3.13;2.35;;;;;;;20.97;39.06;100224.19;5052772;28;20211;-76
2022/05/02 10:34:04;;;;;;;2.30;2.10;;;;;;;21.44;39.94;100228.28;5051519;28;20285;-75
2022/05/02 10:36:37;;;;;;;2.03;1.85;;;;;;;21.57;39.44;100221.75;5052059;28;20668;-74
2022/05/02 10:39:16;;;;;;;4.80;2.17;;;;;;;22.01;37.93;100216.06;5051482;28;20203;-76
2022/05/02 10:41:46;;;;;;;3.17;2.08;;;;;;;22.05;37.47;100216.84;5051851;28;20207;-75
2022/05/02 10:44:16;;;;;;;1.95;1.80;;;;;;;21.66;37.27;100203.88;5051736;28;20358;-76
2022/05/02 10:46:45;;;;;;;3.50;1.67;;;;;;;21.73;37.97;100208.06;5052199;28;20203;-76
2022/05/02 10:49:23;;;;;;;1.88;1.52;;;;;;;21.25;39.23;100220.84;5051474;28;20200;-76
2022/05/02 10:51:56;;;;;;;2.45;2.25;;;;;;;21.49;38.40;100208.75;5046772;28;20898;-75
2022/05/02 10:54:40;;;;;;;3.88;2.08;;;;;;;21.87;38.18;100202.38;5049299;28;20824;-72
2022/05/02 10:57:19;;;;;;;2.67;2.22;;;;;;;22.05;38.08;100206.28;5033346;28;20647;-72
2022/05/02 10:59:50;;;;;;;2.55;2.00;;;;;;;22.38;38.48;100213.19;5050914;28;20236;-74
2022/05/02 11:02:49;;;;;;;2.92;2.20;;;;;;;22.15;38.30;100187.47;5015269;28;20200;-75
2022/05/02 11:05:17;;;;;;;2.95;2.10;;;;;;;21.99;38.63;100196.78;5030882;28;20222;-73
2022/05/02 11:07:56;;;;;;;2.28;2.08;;;;;;;21.82;38.25;100185.84;5050075;28;20203;-73
2022/05/02 11:10:28;;;;;;;2.22;2.03;;;;;;;21.53;38.07;100191.06;5049290;28;20206;-74
2022/05/02 11:13:20;;;;;;;3.47;2.28;;;;;;;21.77;37.99;100190.38;5051058;28;20203;-75
2022/05/02 11:16:02;;;;;;;6.05;4.63;;;;;;;21.96;38.61;100183.69;5044045;28;20200;-74
2022/05/02 11:21:41;;;;;;;2.53;1.85;;;;;;;21.63;39.01;100160.88;5049584;28;20633;-74
2022/05/02 11:24:34;;;;;;;6.40;2.60;;;;;;;22.05;39.74;100143.78;5051977;28;20235;-77
2022/05/02 11:27:13;;;;;;;1.80;1.70;;;;;;;21.52;38.43;100173.50;5044450;28;20208;-79
2022/05/02 11:29:54;;;;;;;2.75;2.00;;;;;;;20.99;39.07;100128.34;5046380;28;20329;-82
2022/05/02 11:32:29;;;;;;;4.85;1.98;;;;;;;21.47;38.94;100146.41;5050801;28;20207;-82
2022/05/02 11:35:04;;;;;;;2.78;2.35;;;;;;;21.19;38.78;100107.59;5035084;28;20206;-82
2022/05/02 11:37:38;;;;;;;2.22;1.95;;;;;;;20.56;38.88;100035.50;5054074;28;20255;-84
2022/05/02 11:40:08;;;;;;;2.33;2.00;;;;;;;21.59;38.74;100099.41;5051150;28;20279;-81
2022/05/02 11:42:41;;;;;;;2.00;1.90;;;;;;;21.95;38.37;100150.25;5050442;28;20202;-78
2022/05/02 11:45:11;;;;;;;4.50;1.77;;;;;;;21.55;38.79;100154.94;5050748;28;20207;-76
2022/05/02 11:48:14;;;;;;;4.50;1.80;;;;;;;21.10;39.44;100049.84;5051124;28;20239;-84
2022/05/02 11:50:44;;;;;;;1.80;1.52;;;;;;;21.54;38.51;100096.03;5005812;28;20264;-80
2022/05/02 11:53:14;;;;;;;5.07;1.98;;;;;;;22.03;38.66;100095.44;4987665;28;20266;-82
2022/05/02 11:55:42;;;;;;;1.50;1.40;;;;;;;21.71;38.61;100128.06;4989317;28;20866;-90
2022/05/02 11:58:20;;;;;;;1.58;1.48;;;;;;;20.90;38.64;100073.22;4993559;28;21005;-86
2022/05/02 12:00:53;;;;;;;3.35;2.10;;;;;;;21.28;39.05;100098.56;5008735;28;20205;-82
2022/05/02 12:03:25;;;;;;;2.63;2.17;;;;;;;21.55;39.82;100110.06;5003021;28;20248;-81
2022/05/02 12:05:52;;;;;;;6.53;1.92;;;;;;;;;;5008903;28;20938;-82
2022/05/02 12:08:26;;;;;;;2.17;2.00;;;;;;;21.46;39.91;100092.75;5008897;28;20205;-86
2022/05/02 12:11:06;;;;;;;2.35;2.13;;;;;;;21.65;39.57;100116.84;5008779;28;20204;-83